sensor_id;sensor_type;location;lat;lon;timestamp;P1;durP1;ratioP1;P2;durP2;ratioP2
27839;SDS011;15207;42.182;24.308;2022-07-12T00:01:07;3.35;;;1.90;;
27839;SDS011;15207;42.182;24.308;2022-07-12T00:05:59;3.93;;;1.97;;
27839;SDS011;15207;42.182;24.308;2022-07-12T00:08:26;4.87;;;2.00;;
27839;SDS011;15207;42.182;24.308;2022-07-12T00:10:51;1.85;;;1.63;;
27839;SDS011;15207;42.182;24.308;2022-07-12T00:13:17;5.35;;;1.95;;
27839;SDS011;15207;42.182;24.308;2022-07-12T00:15:43;3.22;;;1.90;;
27839;SDS011;15207;42.182;24.308;2022-07-12T00:18:09;3.40;;;1.80;;
27839;SDS011;15207;42.182;24.308;2022-07-12T00:20:35;4.15;;;1.85;;
27839;SDS011;15207;42.182;24.308;2022-07-12T00:23:02;2.50;;;1.77;;
27839;SDS011;15207;42.182;24.308;2022-07-12T00:25:28;2.63;;;1.65;;
27839;SDS011;15207;42.182;24.308;2022-07-12T00:27:54;4.28;;;1.92;;
27839;SDS011;15207;42.182;24.308;2022-07-12T00:30:20;10.40;;;2.95;;
27839;SDS011;15207;42.182;24.308;2022-07-12T00:32:47;2.08;;;1.90;;
27839;SDS011;15207;42.182;24.308;2022-07-12T00:37:39;2.75;;;2.00;;
27839;SDS011;15207;42.182;24.308;2022-07-12T00:40:06;3.27;;;2.10;;
27839;SDS011;15207;42.182;24.308;2022-07-12T00:42:34;3.85;;;2.35;;
27839;SDS011;15207;42.182;24.308;2022-07-12T00:45:04;2.42;;;2.08;;
27839;SDS011;15207;42.182;24.308;2022-07-12T00:47:34;3.33;;;2.00;;
27839;SDS011;15207;42.182;24.308;2022-07-12T00:50:10;6.95;;;2.60;;
27839;SDS011;15207;42.182;24.308;2022-07-12T00:55:05;8.90;;;2.10;;
27839;SDS011;15207;42.182;24.308;2022-07-12T00:57:31;2.50;;;1.80;;
27839;SDS011;15207;42.182;24.308;2022-07-12T00:59:59;3.33;;;2.47;;
27839;SDS011;15207;42.182;24.308;2022-07-12T01:02:25;8.02;;;2.30;;
27839;SDS011;15207;42.182;24.308;2022-07-12T01:04:52;4.00;;;2.13;;
27839;SDS011;15207;42.182;24.308;2022-07-12T01:07:19;2.90;;;1.70;;
27839;SDS011;15207;42.182;24.308;2022-07-12T01:09:44;5.00;;;2.00;;
27839;SDS011;15207;42.182;24.308;2022-07-12T01:12:10;2.35;;;2.00;;
27839;SDS011;15207;42.182;24.308;2022-07-12T01:14:35;2.30;;;1.67;;
27839;SDS011;15207;42.182;24.308;2022-07-12T01:17:02;3.65;;;2.05;;
27839;SDS011;15207;42.182;24.308;2022-07-12T01:21:54;4.20;;;1.65;;
27839;SDS011;15207;42.182;24.308;2022-07-12T01:24:22;2.70;;;1.90;;
27839;SDS011;15207;42.182;24.308;2022-07-12T01:26:49;4.70;;;2.10;;
27839;SDS011;15207;42.182;24.308;2022-07-12T01:29:15;3.05;;;2.05;;
27839;SDS011;15207;42.182;24.308;2022-07-12T01:31:41;6.45;;;2.28;;
27839;SDS011;15207;42.182;24.308;2022-07-12T01:34:08;4.47;;;2.30;;
27839;SDS011;15207;42.182;24.308;2022-07-12T01:36:34;2.90;;;2.00;;
27839;SDS011;15207;42.182;24.308;2022-07-12T01:39:03;2.63;;;2.00;;
27839;SDS011;15207;42.182;24.308;2022-07-12T01:43:55;2.90;;;2.30;;
27839;SDS011;15207;42.182;24.308;2022-07-12T01:46:21;2.78;;;2.30;;
27839;SDS011;15207;42.182;24.308;2022-07-12T01:48:47;2.90;;;2.30;;
27839;SDS011;15207;42.182;24.308;2022-07-12T01:51:13;3.05;;;2.60;;
27839;SDS011;15207;42.182;24.308;2022-07-12T01:56:05;3.50;;;2.20;;
27839;SDS011;15207;42.182;24.308;2022-07-12T02:00:57;6.00;;;2.13;;
27839;SDS011;15207;42.182;24.308;2022-07-12T02:03:23;4.70;;;2.20;;
27839;SDS011;15207;42.182;24.308;2022-07-12T02:05:49;4.65;;;2.35;;
27839;SDS011;15207;42.182;24.308;2022-07-12T02:08:15;6.32;;;2.40;;
27839;SDS011;15207;42.182;24.308;2022-07-12T02:10:41;4.20;;;2.80;;
27839;SDS011;15207;42.182;24.308;2022-07-12T02:13:08;3.50;;;2.00;;
27839;SDS011;15207;42.182;24.308;2022-07-12T02:15:33;3.40;;;2.20;;
27839;SDS011;15207;42.182;24.308;2022-07-12T02:17:59;4.40;;;2.33;;
27839;SDS011;15207;42.182;24.308;2022-07-12T02:20:24;6.18;;;2.42;;
27839;SDS011;15207;42.182;24.308;2022-07-12T02:22:50;11.60;;;2.60;;
27839;SDS011;15207;42.182;24.308;2022-07-12T02:25:16;3.90;;;2.30;;
27839;SDS011;15207;42.182;24.308;2022-07-12T02:27:42;4.30;;;2.13;;
27839;SDS011;15207;42.182;24.308;2022-07-12T02:30:09;6.60;;;2.20;;
27839;SDS011;15207;42.182;24.308;2022-07-12T02:35:02;6.40;;;2.80;;
27839;SDS011;15207;42.182;24.308;2022-07-12T02:37:29;7.50;;;2.42;;
27839;SDS011;15207;42.182;24.308;2022-07-12T02:39:54;2.80;;;2.35;;
27839;SDS011;15207;42.182;24.308;2022-07-12T02:42:40;7.80;;;2.45;;
27839;SDS011;15207;42.182;24.308;2022-07-12T02:45:06;3.90;;;2.20;;
27839;SDS011;15207;42.182;24.308;2022-07-12T02:47:32;4.50;;;2.20;;
27839;SDS011;15207;42.182;24.308;2022-07-12T02:49:58;5.20;;;2.50;;
27839;SDS011;15207;42.182;24.308;2022-07-12T02:52:23;4.80;;;2.50;;
27839;SDS011;15207;42.182;24.308;2022-07-12T02:54:49;3.40;;;2.30;;
27839;SDS011;15207;42.182;24.308;2022-07-12T02:57:15;2.58;;;2.30;;
27839;SDS011;15207;42.182;24.308;2022-07-12T02:59:40;3.40;;;2.60;;
27839;SDS011;15207;42.182;24.308;2022-07-12T03:02:06;5.95;;;2.10;;
27839;SDS011;15207;42.182;24.308;2022-07-12T03:04:32;6.68;;;2.80;;
27839;SDS011;15207;42.182;24.308;2022-07-12T03:06:57;4.20;;;2.10;;
27839;SDS011;15207;42.182;24.308;2022-07-12T03:09:23;7.20;;;2.40;;
27839;SDS011;15207;42.182;24.308;2022-07-12T03:11:48;5.25;;;1.77;;
27839;SDS011;15207;42.182;24.308;2022-07-12T03:14:14;6.85;;;1.88;;
27839;SDS011;15207;42.182;24.308;2022-07-12T03:16:39;3.13;;;2.00;;
27839;SDS011;15207;42.182;24.308;2022-07-12T03:19:05;2.15;;;1.90;;
27839;SDS011;15207;42.182;24.308;2022-07-12T03:21:31;6.63;;;2.35;;
27839;SDS011;15207;42.182;24.308;2022-07-12T03:23:56;2.85;;;1.83;;
27839;SDS011;15207;42.182;24.308;2022-07-12T03:26:22;4.15;;;2.15;;
27839;SDS011;15207;42.182;24.308;2022-07-12T03:31:14;3.35;;;2.30;;
27839;SDS011;15207;42.182;24.308;2022-07-12T03:36:05;5.55;;;1.85;;
27839;SDS011;15207;42.182;24.308;2022-07-12T03:40:59;3.70;;;2.10;;
27839;SDS011;15207;42.182;24.308;2022-07-12T03:43:24;3.10;;;2.30;;
27839;SDS011;15207;42.182;24.308;2022-07-12T03:45:50;4.45;;;1.90;;
27839;SDS011;15207;42.182;24.308;2022-07-12T03:48:15;5.30;;;2.00;;
27839;SDS011;15207;42.182;24.308;2022-07-12T03:53:07;3.22;;;1.85;;
27839;SDS011;15207;42.182;24.308;2022-07-12T03:57:58;4.93;;;1.80;;
27839;SDS011;15207;42.182;24.308;2022-07-12T04:00:23;4.60;;;2.20;;
27839;SDS011;15207;42.182;24.308;2022-07-12T04:02:49;2.25;;;2.05;;
27839;SDS011;15207;42.182;24.308;2022-07-12T04:05:14;2.45;;;2.25;;
27839;SDS011;15207;42.182;24.308;2022-07-12T04:07:40;4.17;;;2.27;;
27839;SDS011;15207;42.182;24.308;2022-07-12T04:10:06;5.10;;;2.00;;
27839;SDS011;15207;42.182;24.308;2022-07-12T04:12:33;5.10;;;2.05;;
27839;SDS011;15207;42.182;24.308;2022-07-12T04:14:59;7.10;;;2.10;;
27839;SDS011;15207;42.182;24.308;2022-07-12T04:17:24;3.10;;;2.30;;
27839;SDS011;15207;42.182;24.308;2022-07-12T04:19:50;2.35;;;1.80;;
27839;SDS011;15207;42.182;24.308;2022-07-12T04:24:41;4.95;;;2.10;;
27839;SDS011;15207;42.182;24.308;2022-07-12T04:27:06;8.10;;;2.35;;
27839;SDS011;15207;42.182;24.308;2022-07-12T04:29:32;2.30;;;1.70;;
27839;SDS011;15207;42.182;24.308;2022-07-12T04:31:57;4.55;;;1.60;;
27839;SDS011;15207;42.182;24.308;2022-07-12T04:34:23;6.50;;;1.95;;
27839;SDS011;15207;42.182;24.308;2022-07-12T04:36:48;3.53;;;1.83;;
27839;SDS011;15207;42.182;24.308;2022-07-12T04:39:14;57.15;;;5.32;;
27839;SDS011;15207;42.182;24.308;2022-07-12T04:41:40;3.60;;;1.60;;
27839;SDS011;15207;42.182;24.308;2022-07-12T04:44:06;2.80;;;1.40;;
27839;SDS011;15207;42.182;24.308;2022-07-12T04:46:32;5.20;;;2.03;;
27839;SDS011;15207;42.182;24.308;2022-07-12T04:48:58;9.40;;;1.70;;
27839;SDS011;15207;42.182;24.308;2022-07-12T04:51:23;3.10;;;1.25;;
27839;SDS011;15207;42.182;24.308;2022-07-12T04:53:49;3.58;;;1.50;;
27839;SDS011;15207;42.182;24.308;2022-07-12T04:56:15;8.82;;;1.67;;
27839;SDS011;15207;42.182;24.308;2022-07-12T04:58:40;5.90;;;1.60;;
27839;SDS011;15207;42.182;24.308;2022-07-12T05:01:06;14.80;;;2.30;;
27839;SDS011;15207;42.182;24.308;2022-07-12T05:03:32;3.47;;;1.73;;
27839;SDS011;15207;42.182;24.308;2022-07-12T05:05:58;3.63;;;2.00;;
27839;SDS011;15207;42.182;24.308;2022-07-12T05:08:23;4.38;;;1.63;;
27839;SDS011;15207;42.182;24.308;2022-07-12T05:10:49;5.50;;;1.50;;
27839;SDS011;15207;42.182;24.308;2022-07-12T05:13:15;3.67;;;1.38;;
27839;SDS011;15207;42.182;24.308;2022-07-12T05:18:06;4.10;;;1.80;;
27839;SDS011;15207;42.182;24.308;2022-07-12T05:20:32;10.10;;;1.90;;
27839;SDS011;15207;42.182;24.308;2022-07-12T05:22:58;46.50;;;4.00;;
27839;SDS011;15207;42.182;24.308;2022-07-12T05:25:24;6.32;;;1.48;;
27839;SDS011;15207;42.182;24.308;2022-07-12T05:27:49;7.60;;;1.90;;
27839;SDS011;15207;42.182;24.308;2022-07-12T05:30:16;9.00;;;1.60;;
27839;SDS011;15207;42.182;24.308;2022-07-12T05:32:42;39.00;;;2.60;;
27839;SDS011;15207;42.182;24.308;2022-07-12T05:35:08;14.75;;;3.00;;
27839;SDS011;15207;42.182;24.308;2022-07-12T05:37:34;15.20;;;1.40;;
27839;SDS011;15207;42.182;24.308;2022-07-12T05:39:59;3.90;;;1.30;;
27839;SDS011;15207;42.182;24.308;2022-07-12T05:42:25;13.40;;;2.10;;
27839;SDS011;15207;42.182;24.308;2022-07-12T05:44:51;3.88;;;1.10;;
27839;SDS011;15207;42.182;24.308;2022-07-12T05:47:18;2.80;;;1.30;;
27839;SDS011;15207;42.182;24.308;2022-07-12T05:49:44;5.15;;;1.50;;
27839;SDS011;15207;42.182;24.308;2022-07-12T05:52:09;4.72;;;1.67;;
27839;SDS011;15207;42.182;24.308;2022-07-12T05:54:53;4.20;;;1.60;;
27839;SDS011;15207;42.182;24.308;2022-07-12T05:59:44;4.50;;;1.60;;
27839;SDS011;15207;42.182;24.308;2022-07-12T06:02:10;7.40;;;1.70;;
27839;SDS011;15207;42.182;24.308;2022-07-12T06:04:36;2.60;;;1.50;;
27839;SDS011;15207;42.182;24.308;2022-07-12T06:07:01;5.15;;;1.70;;
27839;SDS011;15207;42.182;24.308;2022-07-12T06:09:27;2.00;;;1.20;;
27839;SDS011;15207;42.182;24.308;2022-07-12T06:11:53;4.10;;;1.40;;
27839;SDS011;15207;42.182;24.308;2022-07-12T06:14:19;2.00;;;1.10;;
27839;SDS011;15207;42.182;24.308;2022-07-12T06:16:44;7.17;;;1.13;;
27839;SDS011;15207;42.182;24.308;2022-07-12T06:19:10;9.20;;;1.75;;
27839;SDS011;15207;42.182;24.308;2022-07-12T06:21:35;3.80;;;1.20;;
27839;SDS011;15207;42.182;24.308;2022-07-12T06:24:01;2.92;;;1.13;;
27839;SDS011;15207;42.182;24.308;2022-07-12T06:26:27;4.80;;;1.20;;
27839;SDS011;15207;42.182;24.308;2022-07-12T06:31:18;7.70;;;1.90;;
27839;SDS011;15207;42.182;24.308;2022-07-12T06:33:43;6.15;;;1.48;;
27839;SDS011;15207;42.182;24.308;2022-07-12T06:36:09;3.60;;;1.20;;
27839;SDS011;15207;42.182;24.308;2022-07-12T06:38:35;3.42;;;1.05;;
27839;SDS011;15207;42.182;24.308;2022-07-12T06:41:00;4.80;;;1.10;;
27839;SDS011;15207;42.182;24.308;2022-07-12T06:43:26;1.63;;;1.00;;
27839;SDS011;15207;42.182;24.308;2022-07-12T06:45:52;6.15;;;1.50;;
27839;SDS011;15207;42.182;24.308;2022-07-12T06:48:18;10.50;;;1.40;;
27839;SDS011;15207;42.182;24.308;2022-07-12T06:50:43;3.55;;;1.05;;
27839;SDS011;15207;42.182;24.308;2022-07-12T06:53:12;4.10;;;1.20;;
27839;SDS011;15207;42.182;24.308;2022-07-12T06:55:38;3.60;;;0.80;;
27839;SDS011;15207;42.182;24.308;2022-07-12T06:58:03;5.50;;;1.38;;
27839;SDS011;15207;42.182;24.308;2022-07-12T07:00:30;5.20;;;1.25;;
27839;SDS011;15207;42.182;24.308;2022-07-12T07:02:55;4.33;;;1.00;;
27839;SDS011;15207;42.182;24.308;2022-07-12T07:05:21;3.67;;;1.02;;
27839;SDS011;15207;42.182;24.308;2022-07-12T07:07:46;5.70;;;1.40;;
27839;SDS011;15207;42.182;24.308;2022-07-12T07:10:12;4.10;;;0.97;;
27839;SDS011;15207;42.182;24.308;2022-07-12T07:12:38;3.85;;;1.00;;
27839;SDS011;15207;42.182;24.308;2022-07-12T07:15:04;5.15;;;1.00;;
27839;SDS011;15207;42.182;24.308;2022-07-12T07:17:30;3.50;;;1.10;;
27839;SDS011;15207;42.182;24.308;2022-07-12T07:19:55;6.65;;;0.95;;
27839;SDS011;15207;42.182;24.308;2022-07-12T07:22:21;6.60;;;1.10;;
27839;SDS011;15207;42.182;24.308;2022-07-12T07:24:48;8.00;;;1.70;;
27839;SDS011;15207;42.182;24.308;2022-07-12T07:27:13;7.65;;;1.05;;
27839;SDS011;15207;42.182;24.308;2022-07-12T07:29:39;3.77;;;1.20;;
27839;SDS011;15207;42.182;24.308;2022-07-12T07:32:23;5.85;;;1.20;;
27839;SDS011;15207;42.182;24.308;2022-07-12T07:34:49;2.43;;;0.67;;
27839;SDS011;15207;42.182;24.308;2022-07-12T07:37:14;5.20;;;0.95;;
27839;SDS011;15207;42.182;24.308;2022-07-12T07:42:05;4.85;;;1.00;;
27839;SDS011;15207;42.182;24.308;2022-07-12T07:44:31;2.75;;;0.90;;
27839;SDS011;15207;42.182;24.308;2022-07-12T07:46:57;3.85;;;1.15;;
27839;SDS011;15207;42.182;24.308;2022-07-12T07:49:22;3.27;;;0.90;;
27839;SDS011;15207;42.182;24.308;2022-07-12T07:54:13;5.87;;;0.80;;
27839;SDS011;15207;42.182;24.308;2022-07-12T07:56:39;1.60;;;0.80;;
27839;SDS011;15207;42.182;24.308;2022-07-12T07:59:04;6.35;;;1.20;;
27839;SDS011;15207;42.182;24.308;2022-07-12T08:04:14;4.68;;;2.30;;
27839;SDS011;15207;42.182;24.308;2022-07-12T08:06:42;5.70;;;1.05;;
27839;SDS011;15207;42.182;24.308;2022-07-12T08:09:08;3.80;;;0.80;;
27839;SDS011;15207;42.182;24.308;2022-07-12T08:11:35;2.88;;;0.90;;
27839;SDS011;15207;42.182;24.308;2022-07-12T08:14:02;5.50;;;0.90;;
27839;SDS011;15207;42.182;24.308;2022-07-12T08:18:54;5.70;;;1.30;;
27839;SDS011;15207;42.182;24.308;2022-07-12T08:21:20;5.10;;;0.70;;
27839;SDS011;15207;42.182;24.308;2022-07-12T08:23:45;5.85;;;0.95;;
27839;SDS011;15207;42.182;24.308;2022-07-12T08:28:36;3.10;;;1.30;;
27839;SDS011;15207;42.182;24.308;2022-07-12T08:31:02;4.90;;;0.80;;
27839;SDS011;15207;42.182;24.308;2022-07-12T08:33:27;3.10;;;1.20;;
27839;SDS011;15207;42.182;24.308;2022-07-12T08:35:53;2.23;;;0.80;;
27839;SDS011;15207;42.182;24.308;2022-07-12T08:38:19;5.60;;;1.10;;
27839;SDS011;15207;42.182;24.308;2022-07-12T08:40:45;2.50;;;0.80;;
27839;SDS011;15207;42.182;24.308;2022-07-12T08:43:11;3.55;;;0.80;;
27839;SDS011;15207;42.182;24.308;2022-07-12T08:45:36;4.53;;;0.97;;
27839;SDS011;15207;42.182;24.308;2022-07-12T08:48:02;3.50;;;0.80;;
27839;SDS011;15207;42.182;24.308;2022-07-12T08:50:28;4.10;;;0.70;;
27839;SDS011;15207;42.182;24.308;2022-07-12T08:52:54;6.15;;;0.95;;
27839;SDS011;15207;42.182;24.308;2022-07-12T08:57:51;2.30;;;0.80;;
27839;SDS011;15207;42.182;24.308;2022-07-12T09:00:18;6.80;;;1.05;;
27839;SDS011;15207;42.182;24.308;2022-07-12T09:05:24;3.60;;;0.90;;
27839;SDS011;15207;42.182;24.308;2022-07-12T09:08:09;2.45;;;0.90;;
27839;SDS011;15207;42.182;24.308;2022-07-12T09:10:50;1.77;;;0.70;;
27839;SDS011;15207;42.182;24.308;2022-07-12T09:13:46;2.30;;;0.90;;
27839;SDS011;15207;42.182;24.308;2022-07-12T09:16:24;2.43;;;0.90;;
27839;SDS011;15207;42.182;24.308;2022-07-12T09:18:51;1.85;;;0.70;;
27839;SDS011;15207;42.182;24.308;2022-07-12T09:21:36;2.45;;;0.80;;
27839;SDS011;15207;42.182;24.308;2022-07-12T09:24:01;2.90;;;0.65;;
27839;SDS011;15207;42.182;24.308;2022-07-12T09:26:31;2.00;;;0.85;;
27839;SDS011;15207;42.182;24.308;2022-07-12T09:29:07;5.67;;;0.83;;
27839;SDS011;15207;42.182;24.308;2022-07-12T09:31:37;1.97;;;0.60;;
27839;SDS011;15207;42.182;24.308;2022-07-12T09:37:14;4.00;;;0.90;;
27839;SDS011;15207;42.182;24.308;2022-07-12T09:39:40;2.40;;;0.87;;
27839;SDS011;15207;42.182;24.308;2022-07-12T09:42:07;3.10;;;0.77;;
27839;SDS011;15207;42.182;24.308;2022-07-12T09:44:35;3.50;;;1.00;;
27839;SDS011;15207;42.182;24.308;2022-07-12T09:47:02;2.40;;;0.70;;
27839;SDS011;15207;42.182;24.308;2022-07-12T09:49:28;3.20;;;1.00;;
27839;SDS011;15207;42.182;24.308;2022-07-12T09:51:55;9.20;;;1.00;;
27839;SDS011;15207;42.182;24.308;2022-07-12T09:54:26;3.90;;;0.80;;
27839;SDS011;15207;42.182;24.308;2022-07-12T09:56:53;6.30;;;0.90;;
27839;SDS011;15207;42.182;24.308;2022-07-12T09:59:22;7.40;;;1.00;;
27839;SDS011;15207;42.182;24.308;2022-07-12T10:01:50;16.00;;;1.50;;
27839;SDS011;15207;42.182;24.308;2022-07-12T10:04:20;5.90;;;0.80;;
27839;SDS011;15207;42.182;24.308;2022-07-12T10:06:47;3.45;;;0.90;;
27839;SDS011;15207;42.182;24.308;2022-07-12T10:09:14;3.72;;;1.00;;
27839;SDS011;15207;42.182;24.308;2022-07-12T10:11:41;3.90;;;0.90;;
27839;SDS011;15207;42.182;24.308;2022-07-12T10:14:11;3.25;;;1.20;;
27839;SDS011;15207;42.182;24.308;2022-07-12T10:16:43;2.97;;;0.93;;
27839;SDS011;15207;42.182;24.308;2022-07-12T10:19:28;3.90;;;0.90;;
27839;SDS011;15207;42.182;24.308;2022-07-12T10:22:02;11.93;;;1.10;;
27839;SDS011;15207;42.182;24.308;2022-07-12T10:26:58;5.60;;;1.10;;
27839;SDS011;15207;42.182;24.308;2022-07-12T10:29:45;1.70;;;0.80;;
27839;SDS011;15207;42.182;24.308;2022-07-12T10:32:21;4.13;;;1.02;;
27839;SDS011;15207;42.182;24.308;2022-07-12T10:40:37;3.35;;;0.90;;
27839;SDS011;15207;42.182;24.308;2022-07-12T10:45:30;2.05;;;0.80;;
27839;SDS011;15207;42.182;24.308;2022-07-12T10:47:57;6.23;;;0.90;;
27839;SDS011;15207;42.182;24.308;2022-07-12T10:58:30;3.30;;;1.20;;
27839;SDS011;15207;42.182;24.308;2022-07-12T11:01:06;4.70;;;1.00;;
27839;SDS011;15207;42.182;24.308;2022-07-12T11:06:09;3.53;;;0.70;;
27839;SDS011;15207;42.182;24.308;2022-07-12T11:08:52;2.70;;;1.00;;
27839;SDS011;15207;42.182;24.308;2022-07-12T11:11:30;2.90;;;1.40;;
27839;SDS011;15207;42.182;24.308;2022-07-12T11:14:04;4.17;;;0.93;;
27839;SDS011;15207;42.182;24.308;2022-07-12T11:16:30;4.70;;;1.00;;
27839;SDS011;15207;42.182;24.308;2022-07-12T11:18:56;5.40;;;1.00;;
27839;SDS011;15207;42.182;24.308;2022-07-12T11:21:22;3.30;;;0.80;;
27839;SDS011;15207;42.182;24.308;2022-07-12T11:23:49;1.97;;;0.87;;
27839;SDS011;15207;42.182;24.308;2022-07-12T11:26:15;2.40;;;0.90;;
27839;SDS011;15207;42.182;24.308;2022-07-12T11:28:42;1.70;;;0.90;;
27839;SDS011;15207;42.182;24.308;2022-07-12T11:33:39;3.70;;;1.00;;
27839;SDS011;15207;42.182;24.308;2022-07-12T11:36:08;3.08;;;1.02;;
27839;SDS011;15207;42.182;24.308;2022-07-12T11:38:35;3.70;;;0.90;;
27839;SDS011;15207;42.182;24.308;2022-07-12T11:41:03;4.00;;;1.10;;
27839;SDS011;15207;42.182;24.308;2022-07-12T11:43:30;4.50;;;0.90;;
27839;SDS011;15207;42.182;24.308;2022-07-12T11:45:58;3.17;;;0.82;;
27839;SDS011;15207;42.182;24.308;2022-07-12T11:48:23;4.90;;;0.90;;
27839;SDS011;15207;42.182;24.308;2022-07-12T11:50:50;4.40;;;1.10;;
27839;SDS011;15207;42.182;24.308;2022-07-12T11:53:18;6.03;;;1.30;;
27839;SDS011;15207;42.182;24.308;2022-07-12T11:55:49;4.15;;;1.15;;
27839;SDS011;15207;42.182;24.308;2022-07-12T12:00:43;2.30;;;0.90;;
27839;SDS011;15207;42.182;24.308;2022-07-12T12:03:10;2.73;;;1.23;;
27839;SDS011;15207;42.182;24.308;2022-07-12T12:05:37;3.90;;;1.05;;
27839;SDS011;15207;42.182;24.308;2022-07-12T12:08:04;3.25;;;0.80;;
27839;SDS011;15207;42.182;24.308;2022-07-12T12:10:33;4.10;;;0.90;;
27839;SDS011;15207;42.182;24.308;2022-07-12T12:13:01;6.17;;;1.03;;
27839;SDS011;15207;42.182;24.308;2022-07-12T12:15:28;4.57;;;0.95;;
27839;SDS011;15207;42.182;24.308;2022-07-12T12:20:26;8.83;;;1.30;;
27839;SDS011;15207;42.182;24.308;2022-07-12T12:23:03;8.30;;;1.40;;
27839;SDS011;15207;42.182;24.308;2022-07-12T12:25:30;4.35;;;0.75;;
27839;SDS011;15207;42.182;24.308;2022-07-12T12:28:00;2.00;;;1.00;;
27839;SDS011;15207;42.182;24.308;2022-07-12T12:30:30;5.00;;;1.00;;
27839;SDS011;15207;42.182;24.308;2022-07-12T12:33:01;4.10;;;1.10;;
27839;SDS011;15207;42.182;24.308;2022-07-12T12:35:38;2.80;;;1.00;;
27839;SDS011;15207;42.182;24.308;2022-07-12T12:38:13;6.65;;;1.30;;
27839;SDS011;15207;42.182;24.308;2022-07-12T12:40:49;5.05;;;1.10;;
27839;SDS011;15207;42.182;24.308;2022-07-12T12:43:19;8.50;;;1.20;;
27839;SDS011;15207;42.182;24.308;2022-07-12T12:48:22;13.75;;;1.30;;
27839;SDS011;15207;42.182;24.308;2022-07-12T12:50:50;4.73;;;1.10;;
27839;SDS011;15207;42.182;24.308;2022-07-12T12:53:18;3.30;;;0.80;;
27839;SDS011;15207;42.182;24.308;2022-07-12T12:55:51;1.45;;;0.90;;
27839;SDS011;15207;42.182;24.308;2022-07-12T12:58:18;1.95;;;0.75;;
27839;SDS011;15207;42.182;24.308;2022-07-12T13:03:13;2.13;;;1.00;;
27839;SDS011;15207;42.182;24.308;2022-07-12T13:05:40;3.95;;;1.05;;
27839;SDS011;15207;42.182;24.308;2022-07-12T13:08:07;3.60;;;1.20;;
27839;SDS011;15207;42.182;24.308;2022-07-12T13:10:34;6.17;;;1.40;;
27839;SDS011;15207;42.182;24.308;2022-07-12T13:13:01;3.10;;;1.00;;
27839;SDS011;15207;42.182;24.308;2022-07-12T13:15:28;4.90;;;0.90;;
27839;SDS011;15207;42.182;24.308;2022-07-12T13:17:54;3.55;;;1.10;;
27839;SDS011;15207;42.182;24.308;2022-07-12T13:20:22;6.00;;;1.10;;
27839;SDS011;15207;42.182;24.308;2022-07-12T13:22:48;3.40;;;1.20;;
27839;SDS011;15207;42.182;24.308;2022-07-12T13:25:14;5.83;;;1.00;;
27839;SDS011;15207;42.182;24.308;2022-07-12T13:27:41;9.70;;;1.30;;
27839;SDS011;15207;42.182;24.308;2022-07-12T13:30:08;7.27;;;1.40;;
27839;SDS011;15207;42.182;24.308;2022-07-12T13:32:36;3.35;;;0.80;;
27839;SDS011;15207;42.182;24.308;2022-07-12T13:35:02;7.35;;;1.75;;
27839;SDS011;15207;42.182;24.308;2022-07-12T13:37:29;4.55;;;1.00;;
27839;SDS011;15207;42.182;24.308;2022-07-12T13:39:55;4.35;;;1.30;;
27839;SDS011;15207;42.182;24.308;2022-07-12T13:42:46;7.15;;;1.42;;
27839;SDS011;15207;42.182;24.308;2022-07-12T13:45:14;4.30;;;1.40;;
27839;SDS011;15207;42.182;24.308;2022-07-12T13:47:42;2.20;;;1.00;;
27839;SDS011;15207;42.182;24.308;2022-07-12T13:50:09;5.90;;;1.00;;
27839;SDS011;15207;42.182;24.308;2022-07-12T13:52:36;3.25;;;1.10;;
27839;SDS011;15207;42.182;24.308;2022-07-12T13:55:02;6.85;;;1.20;;
27839;SDS011;15207;42.182;24.308;2022-07-12T13:57:28;4.63;;;1.00;;
27839;SDS011;15207;42.182;24.308;2022-07-12T13:59:54;5.20;;;1.05;;
27839;SDS011;15207;42.182;24.308;2022-07-12T14:02:22;5.05;;;1.00;;
27839;SDS011;15207;42.182;24.308;2022-07-12T14:04:48;4.53;;;0.80;;
27839;SDS011;15207;42.182;24.308;2022-07-12T14:07:13;4.40;;;1.00;;
27839;SDS011;15207;42.182;24.308;2022-07-12T14:09:39;2.70;;;1.00;;
27839;SDS011;15207;42.182;24.308;2022-07-12T14:12:05;6.32;;;2.00;;
27839;SDS011;15207;42.182;24.308;2022-07-12T14:14:33;7.40;;;1.40;;
27839;SDS011;15207;42.182;24.308;2022-07-12T14:17:17;4.45;;;1.10;;
27839;SDS011;15207;42.182;24.308;2022-07-12T14:19:43;2.95;;;0.90;;
27839;SDS011;15207;42.182;24.308;2022-07-12T14:22:08;1.60;;;0.90;;
27839;SDS011;15207;42.182;24.308;2022-07-12T14:24:34;6.18;;;0.82;;
27839;SDS011;15207;42.182;24.308;2022-07-12T14:26:59;2.20;;;0.95;;
27839;SDS011;15207;42.182;24.308;2022-07-12T14:29:26;3.63;;;0.82;;
27839;SDS011;15207;42.182;24.308;2022-07-12T14:31:51;1.85;;;0.80;;
27839;SDS011;15207;42.182;24.308;2022-07-12T14:34:18;3.60;;;0.90;;
27839;SDS011;15207;42.182;24.308;2022-07-12T14:36:44;4.80;;;1.10;;
27839;SDS011;15207;42.182;24.308;2022-07-12T14:39:09;4.13;;;0.90;;
27839;SDS011;15207;42.182;24.308;2022-07-12T14:41:35;3.10;;;1.00;;
27839;SDS011;15207;42.182;24.308;2022-07-12T14:44:00;2.90;;;0.70;;
27839;SDS011;15207;42.182;24.308;2022-07-12T14:46:26;4.80;;;0.90;;
27839;SDS011;15207;42.182;24.308;2022-07-12T14:48:52;4.00;;;1.10;;
27839;SDS011;15207;42.182;24.308;2022-07-12T14:51:18;2.25;;;0.80;;
27839;SDS011;15207;42.182;24.308;2022-07-12T14:53:43;5.15;;;1.00;;
27839;SDS011;15207;42.182;24.308;2022-07-12T14:56:09;4.80;;;0.90;;
27839;SDS011;15207;42.182;24.308;2022-07-12T14:58:34;1.80;;;0.80;;
27839;SDS011;15207;42.182;24.308;2022-07-12T15:01:00;2.45;;;0.80;;
27839;SDS011;15207;42.182;24.308;2022-07-12T15:03:25;3.17;;;1.00;;
27839;SDS011;15207;42.182;24.308;2022-07-12T15:05:52;11.05;;;1.60;;
27839;SDS011;15207;42.182;24.308;2022-07-12T15:08:18;5.10;;;1.50;;
27839;SDS011;15207;42.182;24.308;2022-07-12T15:10:43;5.20;;;1.20;;
27839;SDS011;15207;42.182;24.308;2022-07-12T15:13:09;2.75;;;0.85;;
27839;SDS011;15207;42.182;24.308;2022-07-12T15:15:34;3.00;;;1.20;;
27839;SDS011;15207;42.182;24.308;2022-07-12T15:18:00;5.47;;;0.90;;
27839;SDS011;15207;42.182;24.308;2022-07-12T15:20:25;4.70;;;0.90;;
27839;SDS011;15207;42.182;24.308;2022-07-12T15:22:51;2.42;;;1.00;;
27839;SDS011;15207;42.182;24.308;2022-07-12T15:25:17;2.63;;;1.20;;
27839;SDS011;15207;42.182;24.308;2022-07-12T15:27:42;3.30;;;1.10;;
27839;SDS011;15207;42.182;24.308;2022-07-12T15:30:08;4.10;;;1.30;;
27839;SDS011;15207;42.182;24.308;2022-07-12T15:32:34;1.90;;;0.90;;
27839;SDS011;15207;42.182;24.308;2022-07-12T15:34:59;6.70;;;0.93;;
27839;SDS011;15207;42.182;24.308;2022-07-12T15:37:25;2.40;;;0.80;;
27839;SDS011;15207;42.182;24.308;2022-07-12T15:39:51;3.15;;;0.80;;
27839;SDS011;15207;42.182;24.308;2022-07-12T15:44:42;3.35;;;0.90;;
27839;SDS011;15207;42.182;24.308;2022-07-12T15:47:08;4.40;;;1.00;;
27839;SDS011;15207;42.182;24.308;2022-07-12T15:49:38;4.43;;;0.90;;
27839;SDS011;15207;42.182;24.308;2022-07-12T15:52:05;2.25;;;0.80;;
27839;SDS011;15207;42.182;24.308;2022-07-12T15:54:49;5.60;;;0.95;;
27839;SDS011;15207;42.182;24.308;2022-07-12T15:57:15;5.40;;;1.15;;
27839;SDS011;15207;42.182;24.308;2022-07-12T15:59:41;6.80;;;1.00;;
27839;SDS011;15207;42.182;24.308;2022-07-12T16:02:07;4.10;;;1.25;;
27839;SDS011;15207;42.182;24.308;2022-07-12T16:04:34;3.00;;;1.00;;
27839;SDS011;15207;42.182;24.308;2022-07-12T16:07:00;4.60;;;1.10;;
27839;SDS011;15207;42.182;24.308;2022-07-12T16:09:27;5.15;;;1.30;;
27839;SDS011;15207;42.182;24.308;2022-07-12T16:14:19;7.10;;;1.00;;